Mishawaka, Indiana
Current Conditions -  °F | °C
As of 6:54 AM on Tuesday 21 Oct 2014 (Local Time) from KSBN Reporting Station
Light Rain Light Rain  
Wind Chill: 43°   Ceiling: 5000
Heat Index: 47°   Visibility: 10mi
Dew Point: 43°   Wind: 9mph
Humidity: 86%   Direction: 350°N
Pressure: 30.03"   Gusts: NA
Location:  41.66°N, 86.18°W
Report Text: KSBN 211054Z 35008KT 10SM -RA BKN050 OVC060 08/06 A3003 RMK AO2 RAB46 SLP170 P0000 T00830061
Loading
Personal Weather Stations






























Interactive Weather Map
Tropical Storm Tracking
New forecast layout! Learn more

10-Day Weather Forecast

Advertisements
Track Severe Weather on mobile